Time;durP1;ratioP1;P1;durP2;ratioP2;P2;SDS_P1;SDS_P2;PMS_P1;PMS_P2;Temp;Humidity;BMP_temperature;BMP_pressure;BME280_temperature;BME280_humidity;BME280_pressure;Samples;Min_cycle;Max_cycle;Signal;HPM_P1;HPM_P2
2023/03/05 00:00:16;;;;;;;150.75;89.10;;;230.70;2252.80;;;;;;5047989;28;20397;-79
2023/03/05 00:02:42;;;;;;;155.27;88.80;;;230.70;2252.80;;;;;;5031562;28;20021;-79
2023/03/05 00:05:08;;;;;;;152.43;86.07;;;230.70;2252.80;;;;;;5032390;28;20540;-79
2023/03/05 00:07:34;;;;;;;159.80;90.53;;;230.70;2252.80;;;;;;5032063;28;20029;-80
2023/03/05 00:10:00;;;;;;;158.80;93.70;;;230.70;2252.80;;;;;;5032457;28;20160;-79
2023/03/05 00:12:26;;;;;;;193.05;109.35;;;230.90;2252.80;;;;;;5032707;28;20021;-80
2023/03/05 00:14:52;;;;;;;201.80;117.20;;;230.70;2252.80;;;;;;5031940;28;20514;-80
2023/03/05 00:17:18;;;;;;;173.63;101.45;;;230.70;2252.80;;;;;;5032586;28;20040;-81
2023/03/05 00:19:43;;;;;;;201.55;112.35;;;230.70;2252.80;;;;;;5032408;28;20061;-80
2023/03/05 00:22:09;;;;;;;237.45;122.55;;;230.60;2252.80;;;;;;5031823;28;20115;-79
2023/03/05 00:24:35;;;;;;;251.35;127.30;;;230.60;2252.80;;;;;;5033752;28;20164;-79
2023/03/05 00:27:01;;;;;;;208.75;110.63;;;230.60;2252.80;;;;;;5033537;28;20451;-79
2023/03/05 00:29:27;;;;;;;230.82;118.22;;;230.60;2252.80;;;;;;5032119;28;20417;-80
2023/03/05 00:31:53;;;;;;;252.18;122.30;;;230.60;2252.80;;;;;;5032270;28;20475;-78
2023/03/05 00:34:20;;;;;;;233.10;121.78;;;230.50;2252.80;;;;;;5032222;28;20032;-78
2023/03/05 00:36:49;;;;;;;150.25;88.18;;;230.50;2252.80;;;;;;5031859;28;20030;-79
2023/03/05 00:39:16;;;;;;;159.95;90.97;;;230.50;2252.80;;;;;;5032073;28;20352;-80
2023/03/05 00:41:42;;;;;;;139.60;86.20;;;230.50;2252.80;;;;;;5035931;28;20390;-78
2023/03/05 00:44:08;;;;;;;131.98;79.32;;;230.60;2252.80;;;;;;5035930;28;20029;-82
2023/03/05 00:46:34;;;;;;;127.00;78.75;;;230.50;2252.80;;;;;;5037408;28;20348;-79
2023/03/05 00:49:00;;;;;;;137.77;82.32;;;230.50;2252.80;;;;;;5036117;28;20029;-80
2023/03/05 00:51:26;;;;;;;146.10;87.85;;;230.60;2252.80;;;;;;5035862;28;20459;-81
2023/03/05 00:53:53;;;;;;;131.93;79.65;;;230.50;2252.80;;;;;;5036022;28;20375;-79
2023/03/05 00:56:19;;;;;;;114.25;68.65;;;230.50;2252.80;;;;;;5035895;28;20090;-78
2023/03/05 00:58:45;;;;;;;105.45;63.33;;;230.40;2252.80;;;;;;5044322;28;20452;-80
2023/03/05 01:01:11;;;;;;;91.40;59.30;;;230.50;2252.80;;;;;;5055626;28;20163;-79
2023/03/05 01:03:36;;;;;;;93.03;54.38;;;230.40;2252.80;;;;;;5054533;28;20478;-79
2023/03/05 01:06:12;;;;;;;104.65;63.67;;;230.40;2252.80;;;;;;5055756;28;20061;-78
2023/03/05 01:08:38;;;;;;;107.28;63.88;;;230.50;2252.80;;;;;;5056647;28;20045;-78
2023/03/05 01:11:05;;;;;;;106.03;61.80;;;230.50;2252.80;;;;;;5055099;28;20040;-79
2023/03/05 01:13:31;;;;;;;102.25;60.78;;;230.50;2252.80;;;;;;5056976;28;20450;-78
2023/03/05 01:15:57;;;;;;;95.38;58.25;;;230.50;2252.80;;;;;;5055815;28;20029;-78
2023/03/05 01:18:22;;;;;;;88.60;52.72;;;230.40;2252.80;;;;;;5056536;28;20025;-79
2023/03/05 01:20:48;;;;;;;78.93;49.50;;;205.60;2252.80;;;;;;5055495;28;20068;-80
2023/03/05 01:23:15;;;;;;;78.13;46.17;;;205.60;2252.80;;;;;;5056413;28;20033;-78
2023/03/05 01:25:40;;;;;;;77.80;50.20;;;205.60;2252.80;;;;;;5055113;28;20032;-80
2023/03/05 01:28:07;;;;;;;79.68;49.60;;;205.70;2252.80;;;;;;5045567;28;20033;-80
2023/03/05 01:30:32;;;;;;;81.20;50.33;;;205.70;2252.80;;;;;;5035117;28;20036;-83
2023/03/05 01:32:58;;;;;;;82.35;51.10;;;230.40;2252.80;;;;;;5050721;28;20120;-79
2023/03/05 01:35:25;;;;;;;83.25;52.60;;;230.40;2252.80;;;;;;5052000;28;20026;-78
2023/03/05 01:37:52;;;;;;;86.50;54.70;;;230.50;2252.80;;;;;;5035252;28;20076;-78
2023/03/05 01:40:23;;;;;;;76.65;50.45;;;230.50;2252.80;;;;;;5036226;28;20045;-80
2023/03/05 01:43:14;;;;;;;69.30;42.22;;;230.50;2252.80;;;;;;5036548;28;20112;-80
2023/03/05 01:46:17;;;;;;;55.72;33.78;;;230.50;2252.80;;;;;;5034424;28;20386;-79
2023/03/05 01:48:47;;;;;;;57.20;33.30;;;205.60;2252.80;;;;;;5035153;28;20378;-79
2023/03/05 01:51:14;;;;;;;59.33;35.70;;;205.40;2252.80;;;;;;5035253;28;20044;-79
2023/03/05 01:53:40;;;;;;;56.30;34.78;;;205.40;2252.80;;;;;;5034804;28;20485;-80
2023/03/05 01:56:06;;;;;;;63.28;37.58;;;205.40;2252.80;;;;;;5034880;28;20029;-78
2023/03/05 01:58:32;;;;;;;58.33;35.45;;;205.40;2252.80;;;;;;5035085;28;20076;-80
2023/03/05 02:00:58;;;;;;;57.70;36.33;;;205.50;2252.80;;;;;;5034592;28;20033;-79
2023/03/05 02:03:25;;;;;;;63.00;37.15;;;205.40;2252.80;;;;;;5034893;28;20021;-80
2023/03/05 02:05:50;;;;;;;64.88;38.15;;;205.60;2252.80;;;;;;5035830;28;20410;-79
2023/03/05 02:08:19;;;;;;;66.00;38.45;;;205.60;2252.80;;;;;;5034313;28;20054;-79
2023/03/05 02:10:48;;;;;;;113.65;58.80;;;205.60;2252.80;;;;;;5034826;28;20118;-81
2023/03/05 02:13:21;;;;;;;124.80;66.95;;;205.70;2252.80;;;;;;5034756;28;20176;-81
2023/03/05 02:15:48;;;;;;;119.57;65.13;;;205.70;2252.80;;;;;;5054906;28;20017;-79
2023/03/05 02:18:16;;;;;;;123.30;66.43;;;205.70;2252.80;;;;;;5060580;28;20014;-78
2023/03/05 02:20:55;;;;;;;100.07;60.13;;;230.40;2252.80;;;;;;5058858;28;20073;-77
2023/03/05 02:23:23;;;;;;;79.97;49.13;;;205.70;2252.80;;;;;;5059014;28;20121;-77
2023/03/05 02:25:49;;;;;;;84.03;49.30;;;205.70;2252.80;;;;;;5047273;28;20106;-79
2023/03/05 02:28:36;;;;;;;80.07;47.30;;;205.70;2252.80;;;;;;5035569;28;20049;-78
2023/03/05 02:31:07;;;;;;;83.28;50.30;;;230.60;2252.80;;;;;;5034837;28;20386;-80
2023/03/05 02:33:33;;;;;;;99.40;57.47;;;230.40;2252.80;;;;;;5036174;28;20021;-80
2023/03/05 02:35:59;;;;;;;94.20;55.95;;;230.50;2252.80;;;;;;5034834;28;20108;-79
2023/03/05 02:38:24;;;;;;;93.03;54.40;;;230.50;2252.80;;;;;;5036112;28;20021;-81
2023/03/05 02:40:50;;;;;;;88.72;54.72;;;230.50;2252.80;;;;;;5034194;28;20478;-79
2023/03/05 02:43:16;;;;;;;94.30;59.67;;;230.50;2252.80;;;;;;5035108;28;20026;-80
2023/03/05 02:45:42;;;;;;;97.70;59.25;;;230.50;2252.80;;;;;;5033910;28;20419;-80
2023/03/05 02:48:07;;;;;;;219.00;105.53;;;230.40;2252.80;;;;;;5035791;28;20035;-79
2023/03/05 02:50:34;;;;;;;87.75;54.92;;;205.70;2252.80;;;;;;5042866;28;20025;-80
2023/03/05 02:53:00;;;;;;;73.25;44.65;;;205.50;2252.80;;;;;;5055061;28;20033;-80
2023/03/05 02:55:25;;;;;;;79.57;45.58;;;205.40;2252.80;;;;;;5052922;28;20028;-79
2023/03/05 02:57:51;;;;;;;76.20;45.92;;;205.40;2252.80;;;;;;5053425;28;20056;-78
2023/03/05 03:00:17;;;;;;;70.25;44.63;;;205.40;2252.80;;;;;;5053719;28;20040;-79
2023/03/05 03:02:43;;;;;;;81.57;46.38;;;205.40;2252.80;;;;;;5052604;28;20028;-78
2023/03/05 03:05:09;;;;;;;88.65;54.55;;;205.40;2252.80;;;;;;5053636;28;20036;-78
2023/03/05 03:07:35;;;;;;;91.88;53.83;;;205.40;2252.80;;;;;;5052937;28;20029;-80
2023/03/05 03:10:02;;;;;;;98.38;52.55;;;205.40;2252.80;;;;;;5053286;28;20485;-78
2023/03/05 03:12:28;;;;;;;70.05;40.90;;;205.40;2252.80;;;;;;5053532;28;20463;-77
2023/03/05 03:14:53;;;;;;;63.45;38.65;;;205.50;2252.80;;;;;;5054398;28;20029;-80
2023/03/05 03:17:19;;;;;;;61.90;37.15;;;205.40;2252.80;;;;;;5054361;28;20095;-78
2023/03/05 03:19:45;;;;;;;58.40;34.10;;;205.40;2252.80;;;;;;5054656;28;20025;-78
2023/03/05 03:22:13;;;;;;;54.35;32.55;;;205.40;2252.80;;;;;;5054084;28;20115;-79
2023/03/05 03:24:41;;;;;;;47.05;30.40;;;205.40;2252.80;;;;;;5052745;28;20075;-82
2023/03/05 03:27:07;;;;;;;52.90;29.00;;;205.30;2252.80;;;;;;5054499;28;20051;-80
2023/03/05 03:29:32;;;;;;;46.45;28.05;;;205.30;2252.80;;;;;;5054252;28;20025;-79
2023/03/05 03:31:58;;;;;;;47.78;29.00;;;205.20;2252.80;;;;;;5052609;28;20037;-79
2023/03/05 03:34:25;;;;;;;47.65;29.73;;;205.20;2252.80;;;;;;5052912;28;20025;-79
2023/03/05 03:36:54;;;;;;;41.78;27.17;;;205.20;2252.80;;;;;;5053020;28;20025;-80
2023/03/05 03:39:20;;;;;;;45.78;28.45;;;205.20;2252.80;;;;;;5052823;28;20025;-79
2023/03/05 03:41:49;;;;;;;47.83;27.95;;;205.20;2252.80;;;;;;5052971;28;20040;-79
2023/03/05 03:44:17;;;;;;;49.05;27.70;;;205.20;2252.80;;;;;;5054711;28;20025;-80
2023/03/05 03:46:45;;;;;;;53.17;29.60;;;205.20;2252.80;;;;;;5052596;28;20022;-80
2023/03/05 03:49:21;;;;;;;49.60;29.60;;;205.20;2252.80;;;;;;5052854;28;20473;-79
2023/03/05 03:51:48;;;;;;;45.40;27.17;;;205.20;2252.80;;;;;;5052543;28;20030;-79
2023/03/05 03:54:15;;;;;;;45.10;28.33;;;205.20;2252.80;;;;;;5052819;28;20121;-79
2023/03/05 03:56:41;;;;;;;51.60;26.48;;;205.20;2252.80;;;;;;5052728;28;20025;-79
2023/03/05 03:59:08;;;;;;;48.30;27.65;;;205.10;2252.80;;;;;;5053742;28;20025;-81
2023/03/05 04:01:34;;;;;;;49.00;28.38;;;205.10;2252.80;;;;;;5052768;28;20037;-79
2023/03/05 04:03:59;;;;;;;55.00;30.08;;;205.10;2252.80;;;;;;5052789;28;20025;-80
2023/03/05 04:06:25;;;;;;;47.47;28.75;;;205.20;2252.80;;;;;;5052350;28;20021;-81
2023/03/05 04:08:51;;;;;;;49.65;30.17;;;205.20;2252.80;;;;;;5052418;28;20052;-80
2023/03/05 04:11:18;;;;;;;46.30;28.02;;;205.10;2252.80;;;;;;5052559;28;20035;-78
2023/03/05 04:13:45;;;;;;;54.95;29.70;;;205.20;2252.80;;;;;;5052078;28;20459;-80
2023/03/05 04:16:11;;;;;;;46.35;26.08;;;205.10;2252.80;;;;;;5051868;28;20021;-79
2023/03/05 04:18:37;;;;;;;52.53;28.77;;;205.10;2252.80;;;;;;5052664;28;20029;-80
2023/03/05 04:21:03;;;;;;;49.45;27.70;;;205.10;2252.80;;;;;;5053012;28;20434;-80
2023/03/05 04:23:29;;;;;;;48.17;29.52;;;205.00;2252.80;;;;;;5053707;28;20064;-79
2023/03/05 04:25:54;;;;;;;53.83;30.60;;;205.10;2252.80;;;;;;5052332;28;20060;-78
2023/03/05 04:28:20;;;;;;;51.35;29.42;;;205.10;2252.80;;;;;;5052115;28;20055;-80
2023/03/05 04:30:46;;;;;;;52.30;29.17;;;205.10;2252.80;;;;;;5053409;28;20025;-80
2023/03/05 04:33:12;;;;;;;50.47;30.98;;;205.10;2252.80;;;;;;5052352;28;20474;-78
2023/03/05 04:35:38;;;;;;;50.35;30.08;;;205.10;2252.80;;;;;;5053579;28;20098;-81
2023/03/05 04:38:03;;;;;;;49.00;28.92;;;205.10;2252.80;;;;;;5053193;28;20025;-78
2023/03/05 04:40:29;;;;;;;45.22;29.38;;;205.00;2252.80;;;;;;5053383;28;20033;-81
2023/03/05 04:42:55;;;;;;;53.40;31.30;;;205.10;2252.80;;;;;;5051693;28;20047;-80
2023/03/05 04:45:21;;;;;;;56.92;30.05;;;205.10;2252.80;;;;;;5052354;28;20029;-82
2023/03/05 04:47:46;;;;;;;54.15;32.55;;;204.90;2252.80;;;;;;5052036;28;20367;-80
2023/03/05 04:50:13;;;;;;;57.85;32.72;;;204.90;2252.80;;;;;;5047393;28;20026;-78
2023/03/05 04:52:43;;;;;;;53.42;30.63;;;204.80;2252.80;;;;;;5031492;28;20041;-81
2023/03/05 04:55:10;;;;;;;51.15;30.60;;;204.90;2252.80;;;;;;5032068;28;20053;-80
2023/03/05 04:57:36;;;;;;;60.55;33.67;;;204.90;2252.80;;;;;;5031589;28;20087;-79
2023/03/05 05:00:12;;;;;;;59.58;34.38;;;205.10;2252.80;;;;;;5052214;28;20036;-79
2023/03/05 05:02:47;;;;;;;65.30;36.75;;;205.10;2252.80;;;;;;5051197;28;20057;-80
2023/03/05 05:05:17;;;;;;;63.38;36.47;;;205.20;2252.80;;;;;;5051751;28;20025;-82
2023/03/05 05:07:43;;;;;;;59.33;33.15;;;205.10;2252.80;;;;;;5052911;28;20383;-81
2023/03/05 05:10:10;;;;;;;60.25;35.15;;;205.20;2252.80;;;;;;5051771;28;20029;-80
2023/03/05 05:12:36;;;;;;;67.70;44.25;;;205.20;2252.80;;;;;;5053382;28;20017;-79
2023/03/05 05:15:04;;;;;;;73.95;44.72;;;205.00;2252.80;;;;;;5051911;28;20041;-79
2023/03/05 05:17:31;;;;;;;68.10;43.67;;;205.00;2252.80;;;;;;5051488;28;20060;-81
2023/03/05 05:19:58;;;;;;;73.00;42.67;;;205.10;2252.80;;;;;;5053469;28;20520;-81
2023/03/05 05:22:24;;;;;;;77.10;42.85;;;204.90;2252.80;;;;;;5051996;28;20037;-79
2023/03/05 05:24:50;;;;;;;74.15;41.95;;;204.80;2252.80;;;;;;5051544;28;20095;-81
2023/03/05 05:27:16;;;;;;;68.00;41.25;;;180.00;2252.80;;;;;;5055013;28;20462;-81
2023/03/05 05:29:41;;;;;;;63.67;39.67;;;179.90;2252.80;;;;;;5055219;28;20025;-80
2023/03/05 05:32:07;;;;;;;64.40;37.88;;;179.90;2252.80;;;;;;5056673;28;20028;-80
2023/03/05 05:34:33;;;;;;;60.95;34.42;;;180.00;2252.80;;;;;;5055565;28;20025;-79
2023/03/05 05:36:59;;;;;;;58.15;36.35;;;179.90;2252.80;;;;;;5055078;28;20029;-80
2023/03/05 05:39:25;;;;;;;67.85;36.38;;;180.00;2252.80;;;;;;5055412;28;20124;-80
2023/03/05 05:41:51;;;;;;;63.72;38.15;;;180.00;2252.80;;;;;;5055214;28;20425;-80
2023/03/05 05:44:18;;;;;;;71.95;41.65;;;180.00;2252.80;;;;;;5055090;28;20082;-80
2023/03/05 05:46:43;;;;;;;72.85;42.85;;;180.10;2252.80;;;;;;5055157;28;20025;-80
2023/03/05 05:49:09;;;;;;;71.97;42.88;;;180.10;2252.80;;;;;;5055330;28;20036;-81
2023/03/05 05:51:35;;;;;;;74.80;43.25;;;204.80;2252.80;;;;;;5056060;28;20025;-80
2023/03/05 05:54:01;;;;;;;79.50;45.83;;;180.10;2252.80;;;;;;5055261;28;20382;-82
2023/03/05 05:56:26;;;;;;;76.72;46.53;;;204.80;2252.80;;;;;;5055075;28;20029;-79
2023/03/05 05:58:53;;;;;;;67.93;43.63;;;204.80;2252.80;;;;;;5054420;28;20057;-80
2023/03/05 06:01:23;;;;;;;76.63;45.72;;;205.00;2252.80;;;;;;5054636;28;20478;-80
2023/03/05 06:03:50;;;;;;;76.93;46.92;;;180.10;2252.80;;;;;;5054266;28;20044;-79
2023/03/05 06:06:18;;;;;;;74.95;46.50;;;180.00;2252.80;;;;;;5054631;28;20378;-81
2023/03/05 06:08:45;;;;;;;84.75;48.25;;;179.90;2252.80;;;;;;5054414;28;20049;-81
2023/03/05 06:11:11;;;;;;;77.15;45.80;;;180.00;2252.80;;;;;;5054815;28;20032;-81
2023/03/05 06:13:37;;;;;;;81.05;47.92;;;180.00;2252.80;;;;;;5055786;28;20083;-81
2023/03/05 06:16:07;;;;;;;82.38;46.58;;;180.00;2252.80;;;;;;5056040;28;20052;-82
2023/03/05 06:18:33;;;;;;;74.07;45.33;;;180.00;2252.80;;;;;;5054395;28;20021;-79
2023/03/05 06:21:03;;;;;;;80.47;46.33;;;180.10;2252.80;;;;;;5054715;28;20427;-79
2023/03/05 06:23:29;;;;;;;100.25;57.10;;;204.80;2252.80;;;;;;5054636;28;20394;-79
2023/03/05 06:25:57;;;;;;;85.13;51.50;;;204.80;2252.80;;;;;;5054371;28;20028;-81
2023/03/05 06:28:23;;;;;;;96.60;59.88;;;204.90;2252.80;;;;;;5049492;28;20034;-79
2023/03/05 06:30:49;;;;;;;97.65;61.30;;;204.90;2252.80;;;;;;5035743;28;20041;-79
2023/03/05 06:33:15;;;;;;;104.28;64.90;;;204.90;2252.80;;;;;;5033254;28;20029;-81
2023/03/05 06:35:41;;;;;;;115.60;67.43;;;205.00;2252.80;;;;;;5034406;28;20032;-81
2023/03/05 06:38:07;;;;;;;119.97;76.18;;;205.00;2252.80;;;;;;5033397;28;20125;-81
2023/03/05 06:40:34;;;;;;;108.03;68.70;;;205.00;2252.80;;;;;;5034021;28;20037;-79
2023/03/05 06:42:59;;;;;;;102.55;67.30;;;205.00;2252.80;;;;;;5035602;28;20030;-80
2023/03/05 06:45:25;;;;;;;103.75;64.97;;;205.00;2252.80;;;;;;5035446;28;20099;-80
2023/03/05 06:47:51;;;;;;;95.95;62.53;;;205.00;2252.80;;;;;;5033732;28;20032;-80
2023/03/05 06:50:17;;;;;;;97.38;59.33;;;205.00;2252.80;;;;;;5035045;28;20026;-80
2023/03/05 06:52:42;;;;;;;124.63;77.65;;;204.90;2252.80;;;;;;5035443;28;20025;-78
2023/03/05 06:55:09;;;;;;;94.68;60.58;;;204.90;2252.80;;;;;;5035417;28;20026;-79
2023/03/05 06:57:36;;;;;;;102.65;64.35;;;205.00;2252.80;;;;;;5034077;28;20395;-79
2023/03/05 07:00:10;;;;;;;83.90;52.83;;;205.00;2252.80;;;;;;5034014;28;20079;-80
2023/03/05 07:02:39;;;;;;;79.15;50.28;;;205.00;2252.80;;;;;;5034641;28;20083;-79
2023/03/05 07:05:06;;;;;;;87.93;54.10;;;205.00;2252.80;;;;;;5050604;28;20029;-81
2023/03/05 07:07:32;;;;;;;87.43;52.28;;;205.00;2252.80;;;;;;5033544;28;20467;-80
2023/03/05 07:09:58;;;;;;;76.95;47.47;;;204.90;2252.80;;;;;;5033793;28;20028;-81
2023/03/05 07:12:24;;;;;;;72.15;47.95;;;204.90;2252.80;;;;;;5034727;28;20025;-78
2023/03/05 07:14:49;;;;;;;77.90;46.70;;;204.90;2252.80;;;;;;5037449;28;20083;-82
2023/03/05 07:17:17;;;;;;;70.95;44.22;;;205.00;2252.80;;;;;;5052832;28;20128;-80
2023/03/05 07:19:42;;;;;;;68.28;41.30;;;205.30;2252.80;;;;;;5055069;28;20035;-81
2023/03/05 07:22:09;;;;;;;64.15;37.55;;;205.20;2252.80;;;;;;5053059;28;20132;-81
2023/03/05 07:24:35;;;;;;;63.13;38.58;;;205.40;2252.80;;;;;;5054380;28;20549;-79
2023/03/05 07:27:00;;;;;;;52.08;31.23;;;205.30;2252.80;;;;;;5052259;28;20025;-81
2023/03/05 07:29:27;;;;;;;63.65;35.53;;;205.30;2252.80;;;;;;5037374;28;20371;-80
2023/03/05 07:31:53;;;;;;;63.53;38.97;;;205.40;2252.80;;;;;;5045086;28;20497;-81
2023/03/05 07:34:19;;;;;;;57.00;33.55;;;205.40;2252.80;;;;;;5034568;28;20497;-79
2023/03/05 07:36:48;;;;;;;57.92;33.92;;;205.40;2252.80;;;;;;5032933;28;20057;-81
2023/03/05 07:39:14;;;;;;;46.28;29.98;;;205.50;2252.80;;;;;;5034515;28;20029;-81
2023/03/05 07:41:40;;;;;;;47.22;26.58;;;205.60;2252.80;;;;;;5034322;28;20033;-81
2023/03/05 07:44:05;;;;;;;42.33;24.33;;;205.70;2252.80;;;;;;5032901;28;20406;-79
2023/03/05 07:46:32;;;;;;;44.55;26.65;;;230.40;2252.80;;;;;;5033156;28;20029;-80
2023/03/05 07:48:59;;;;;;;34.95;21.52;;;230.40;2252.80;;;;;;5033025;28;20474;-80
2023/03/05 07:51:26;;;;;;;37.70;23.40;;;230.80;2252.80;;;;;;5039808;28;20024;-82
2023/03/05 07:53:53;;;;;;;40.08;22.58;;;230.50;2252.80;;;;;;5052958;28;20024;-80
2023/03/05 07:56:34;;;;;;;36.97;21.30;;;230.60;2252.80;;;;;;5053264;28;20489;-79
2023/03/05 07:59:11;;;;;;;38.20;24.85;;;230.70;2252.80;;;;;;5054210;28;20028;-79
2023/03/05 08:01:37;;;;;;;42.50;24.83;;;230.70;2252.80;;;;;;5052789;28;20072;-81
2023/03/05 08:04:04;;;;;;;39.08;26.23;;;230.80;2252.80;;;;;;5052492;28;20060;-80
2023/03/05 08:06:30;;;;;;;40.20;24.35;;;230.80;2252.80;;;;;;5052595;28;20040;-80
2023/03/05 08:08:57;;;;;;;43.33;23.60;;;230.80;2252.80;;;;;;5052401;28;20406;-79
2023/03/05 08:11:23;;;;;;;39.47;24.50;;;230.90;2252.80;;;;;;5052264;28;20029;-80
2023/03/05 08:13:49;;;;;;;33.20;20.75;;;230.80;2252.80;;;;;;5052478;28;20032;-81
2023/03/05 08:16:20;;;;;;;37.85;21.27;;;230.90;2252.80;;;;;;5052511;28;20027;-79
2023/03/05 08:18:46;;;;;;;33.72;20.10;;;230.90;2252.80;;;;;;5052286;28;20039;-81
2023/03/05 08:21:28;;;;;;;33.55;21.30;;;230.90;2252.80;;;;;;5053510;28;20033;-81
2023/03/05 08:23:55;;;;;;;32.00;19.70;;;230.90;2252.80;;;;;;5052528;28;20033;-80
2023/03/05 08:26:23;;;;;;;49.47;32.80;;;230.80;2252.80;;;;;;5051988;28;20352;-81
2023/03/05 08:28:49;;;;;;;34.58;19.92;;;230.90;2252.80;;;;;;5053277;28;20513;-81
2023/03/05 08:31:16;;;;;;;35.67;20.75;;;230.80;2252.80;;;;;;5053219;28;20090;-80
2023/03/05 08:33:42;;;;;;;33.85;19.98;;;230.90;2252.80;;;;;;5052041;28;20036;-79
2023/03/05 08:36:09;;;;;;;59.08;34.00;;;230.90;2252.80;;;;;;5052192;28;20387;-80
2023/03/05 08:38:35;;;;;;;34.65;22.95;;;230.90;2252.80;;;;;;5053538;28;20141;-81
2023/03/05 08:41:01;;;;;;;271.73;144.65;;;230.90;2252.80;;;;;;5052080;28;20035;-81
2023/03/05 08:43:27;;;;;;;49.55;30.77;;;230.90;2252.80;;;;;;5053469;28;20108;-79
2023/03/05 08:45:53;;;;;;;53.10;30.58;;;231.00;2252.80;;;;;;5053138;28;20096;-79
2023/03/05 08:48:19;;;;;;;45.35;26.90;;;231.10;2252.80;;;;;;5051216;28;20040;-80
2023/03/05 08:50:45;;;;;;;38.95;24.80;;;231.20;2252.80;;;;;;5064147;28;20029;-80
2023/03/05 08:53:11;;;;;;;48.08;28.50;;;231.30;2252.80;;;;;;5043640;28;20025;-79
2023/03/05 08:55:37;;;;;;;34.55;20.80;;;231.30;2252.80;;;;;;5050362;28;20121;-79
2023/03/05 08:58:03;;;;;;;37.00;23.23;;;231.20;2252.80;;;;;;5051924;28;20411;-79
2023/03/05 09:00:29;;;;;;;37.88;20.48;;;231.30;2252.80;;;;;;5048382;28;20037;-77
2023/03/05 09:02:55;;;;;;;34.67;20.45;;;231.30;2252.80;;;;;;5037591;28;20371;-79
2023/03/05 09:05:21;;;;;;;34.38;22.60;;;256.00;2252.80;;;;;;5047380;28;20022;-78
2023/03/05 09:07:46;;;;;;;38.30;23.02;;;256.00;2252.80;;;;;;5035331;28;20057;-77
2023/03/05 09:10:13;;;;;;;43.28;26.65;;;256.20;2252.80;;;;;;5036823;28;20021;-77
2023/03/05 09:12:40;;;;;;;41.20;25.40;;;256.10;2252.80;;;;;;5039959;28;20397;-77
2023/03/05 09:15:08;;;;;;;44.42;25.98;;;256.40;2252.80;;;;;;5049248;28;20024;-77
2023/03/05 09:17:35;;;;;;;32.78;20.13;;;256.30;2252.80;;;;;;5046575;28;20048;-78
2023/03/05 09:20:02;;;;;;;43.33;26.02;;;256.20;2252.80;;;;;;5048801;28;20033;-80
2023/03/05 09:22:28;;;;;;;42.63;24.02;;;256.30;2252.80;;;;;;5050198;28;20116;-79
2023/03/05 09:24:54;;;;;;;48.05;27.15;;;256.40;2252.80;;;;;;5055088;28;20075;-78
2023/03/05 09:27:20;;;;;;;52.42;28.33;;;256.40;2252.80;;;;;;5055276;28;20025;-77
2023/03/05 09:29:46;;;;;;;35.70;22.70;;;256.50;2252.80;;;;;;5055965;28;20049;-78
2023/03/05 09:32:12;;;;;;;34.35;21.75;;;256.50;2252.80;;;;;;5048688;28;20029;-79
2023/03/05 09:34:38;;;;;;;38.13;21.58;;;256.50;2252.80;;;;;;5054593;28;20066;-79
2023/03/05 09:37:04;;;;;;;43.13;27.95;;;256.60;2252.80;;;;;;5055185;28;20029;-78
2023/03/05 09:39:30;;;;;;;32.65;19.98;;;256.70;2252.80;;;;;;5052583;28;20095;-78
2023/03/05 09:42:33;;;;;;;28.58;17.10;;;256.80;2252.80;;;;;;5052979;28;20421;-77
2023/03/05 09:45:17;;;;;;;30.25;19.02;;;256.90;2252.80;;;;;;5054783;28;20025;-77
2023/03/05 09:47:52;;;;;;;35.10;24.23;;;256.90;2252.80;;;;;;5055626;28;20463;-77
2023/03/05 09:50:42;;;;;;;23.67;14.98;;;281.70;2278.40;;;;;;5054742;28;20479;-75
2023/03/05 09:53:36;;;;;;;26.75;17.23;;;281.90;2278.40;;;;;;5054856;28;20108;-78
2023/03/05 09:56:15;;;;;;;35.28;20.60;;;281.80;2278.40;;;;;;5049542;28;20475;-75
2023/03/05 09:58:54;;;;;;;28.80;19.73;;;281.80;2278.40;;;;;;5053171;28;20112;-77
2023/03/05 10:01:30;;;;;;;30.58;17.80;;;281.70;2252.80;;;;;;5054359;28;20037;-74
2023/03/05 10:04:09;;;;;;;29.50;20.40;;;281.60;2278.40;;;;;;5054544;28;20021;-75
2023/03/05 10:06:40;;;;;;;29.52;18.23;;;281.60;2278.40;;;;;;5054759;28;20462;-75
2023/03/05 10:09:09;;;;;;;36.20;25.63;;;281.70;2278.40;;;;;;5054384;28;20053;-75
2023/03/05 10:11:56;;;;;;;34.80;22.98;;;256.70;2252.80;;;;;;5053777;28;20039;-76
2023/03/05 10:14:34;;;;;;;27.02;18.15;;;281.60;2278.40;;;;;;5053878;28;20029;-75
2023/03/05 10:17:19;;;;;;;35.72;24.25;;;281.60;2278.40;;;;;;5054296;28;20025;-76
2023/03/05 10:20:08;;;;;;;34.17;21.75;;;281.90;2278.40;;;;;;5054605;28;20025;-74
2023/03/05 10:22:42;;;;;;;28.92;18.73;;;282.10;2278.40;;;;;;5054131;28;20060;-74
2023/03/05 10:25:31;;;;;;;32.35;21.23;;;282.20;2278.40;;;;;;5054190;28;20021;-75
2023/03/05 10:28:08;;;;;;;31.67;18.83;;;282.30;2278.40;;;;;;5054248;28;20033;-74
2023/03/05 10:31:04;;;;;;;31.13;21.52;;;282.20;2278.40;;;;;;5054181;28;20029;-75
2023/03/05 10:33:52;;;;;;;36.95;23.90;;;282.20;2278.40;;;;;;5054409;28;20048;-74
2023/03/05 10:36:37;;;;;;;34.10;21.75;;;282.10;2278.40;;;;;;5054688;28;20139;-76
2023/03/05 10:39:37;;;;;;;48.70;28.77;;;282.00;2278.40;;;;;;5054881;28;20025;-75
2023/03/05 10:42:40;;;;;;;46.75;28.45;;;282.00;2278.40;;;;;;5054233;28;20415;-77
2023/03/05 10:45:17;;;;;;;55.63;30.45;;;281.90;2278.40;;;;;;5053892;28;20032;-75
2023/03/05 10:48:05;;;;;;;91.22;53.85;;;281.80;2278.40;;;;;;5054174;28;20024;-75
2023/03/05 10:50:39;;;;;;;68.88;41.58;;;281.80;2278.40;;;;;;5055050;28;20033;-76
2023/03/05 10:53:26;;;;;;;88.78;50.05;;;281.70;2278.40;;;;;;5053870;28;20025;-76
2023/03/05 10:55:55;;;;;;;49.47;27.13;;;281.80;2278.40;;;;;;5055624;28;20021;-78
2023/03/05 10:58:22;;;;;;;39.97;24.77;;;281.80;2278.40;;;;;;5055534;28;20083;-77
2023/03/05 11:01:22;;;;;;;31.67;22.95;;;281.80;2278.40;;;;;;5056598;28;20037;-75
2023/03/05 11:03:57;;;;;;;37.25;23.10;;;281.80;2252.80;;;;;;5035003;28;20075;-75
2023/03/05 11:06:34;;;;;;;32.10;20.85;;;281.90;2278.40;;;;;;5053519;28;20382;-75
2023/03/05 11:09:14;;;;;;;31.65;20.30;;;281.80;2201.60;;;;;;5053199;28;20415;-76
2023/03/05 11:11:40;;;;;;;37.97;26.55;;;282.00;2150.40;;;;;;5053552;28;20119;-76
2023/03/05 11:14:28;;;;;;;37.30;25.05;;;281.90;2150.40;;;;;;5054340;28;20060;-77
2023/03/05 11:16:54;;;;;;;32.08;22.88;;;282.00;2201.60;;;;;;5053438;28;20082;-77
2023/03/05 11:19:28;;;;;;;42.38;26.35;;;281.90;2201.60;;;;;;5054850;28;20044;-77
2023/03/05 11:22:19;;;;;;;29.70;21.52;;;281.90;2227.20;;;;;;5053145;28;20390;-77
2023/03/05 11:25:04;;;;;;;32.47;18.67;;;281.80;2201.60;;;;;;5052882;28;20028;-77
2023/03/05 11:27:40;;;;;;;28.98;19.77;;;281.70;2176.00;;;;;;5051798;28;20025;-77
2023/03/05 11:30:35;;;;;;;35.08;22.95;;;281.70;2201.60;;;;;;5051933;28;20067;-78
2023/03/05 11:33:08;;;;;;;36.67;21.17;;;281.80;2227.20;;;;;;5052198;28;20029;-76
2023/03/05 11:35:37;;;;;;;34.20;22.33;;;281.80;2252.80;;;;;;5052957;28;20442;-78
2023/03/05 11:38:05;;;;;;;34.42;23.52;;;281.70;2201.60;;;;;;5052955;28;20029;-78
2023/03/05 11:40:36;;;;;;;41.03;26.95;;;281.70;2201.60;;;;;;5052697;28;20025;-78
2023/03/05 11:43:03;;;;;;;32.97;20.27;;;281.70;2252.80;;;;;;5054256;28;20017;-80
2023/03/05 11:45:32;;;;;;;36.88;22.85;;;281.80;2252.80;;;;;;5053877;28;20060;-78
2023/03/05 11:48:24;;;;;;;45.75;28.85;;;281.80;2278.40;;;;;;5052944;28;20031;-76
2023/03/05 11:51:01;;;;;;;36.75;23.45;;;281.90;2278.40;;;;;;5053767;28;20040;-77
2023/03/05 11:53:28;;;;;;;34.40;23.63;;;282.00;2227.20;;;;;;5053705;28;20021;-76
2023/03/05 11:55:57;;;;;;;32.90;23.00;;;282.10;2227.20;;;;;;5051660;28;20021;-78
2023/03/05 11:58:31;;;;;;;36.15;24.13;;;282.00;2227.20;;;;;;5051560;28;20035;-79
2023/03/05 12:00:58;;;;;;;31.15;21.48;;;282.00;2227.20;;;;;;5050408;28;20385;-78
2023/03/05 12:03:37;;;;;;;41.65;25.88;;;281.90;2201.60;;;;;;5051457;28;20035;-76
2023/03/05 12:06:14;;;;;;;44.58;27.23;;;281.80;2252.80;;;;;;5051249;28;20378;-78
2023/03/05 12:08:45;;;;;;;41.05;27.77;;;281.80;2278.40;;;;;;5052248;28;20057;-79